Time;durP1;ratioP1;P1;durP2;ratioP2;P2;SDS_P1;SDS_P2;PMS_P1;PMS_P2;Temp;Humidity;BMP_temperature;BMP_pressure;BME280_temperature;BME280_humidity;BME280_pressure;Samples;Min_cycle;Max_cycle;Signal;HPM_P1;HPM_P2
2022/03/29 00:02:09;;;;;;;12.73;11.40;;;5.60;91.80;;;;;;4967659;28;20568;-49
2022/03/29 00:04:36;;;;;;;17.60;11.87;;;5.70;87.30;;;;;;4967010;28;20576;-49
2022/03/29 00:07:04;;;;;;;15.73;11.80;;;5.70;87.20;;;;;;4963841;28;20544;-49
2022/03/29 00:09:31;;;;;;;18.20;11.50;;;5.70;86.10;;;;;;4966936;28;20548;-49
2022/03/29 00:11:57;;;;;;;13.57;11.30;;;5.80;84.60;;;;;;4968680;28;20552;-49
2022/03/29 00:14:24;;;;;;;16.20;12.07;;;5.80;89.70;;;;;;4967549;28;21117;-50
2022/03/29 00:16:50;;;;;;;13.90;10.93;;;5.80;90.30;;;;;;4965828;28;20575;-49
2022/03/29 00:19:17;;;;;;;13.70;11.03;;;5.90;94.00;;;;;;4965715;28;21069;-50
2022/03/29 00:21:43;;;;;;;11.90;10.60;;;5.90;96.70;;;;;;4969313;28;20947;-49
2022/03/29 00:24:11;;;;;;;14.37;12.23;;;5.90;99.90;;;;;;4966664;28;21164;-50
2022/03/29 00:26:38;;;;;;;14.47;12.57;;;5.90;99.90;;;;;;4967355;28;20552;-48
2022/03/29 00:29:05;;;;;;;16.47;13.20;;;5.90;99.90;;;;;;4964870;28;20493;-49
2022/03/29 00:31:32;;;;;;;16.73;12.27;;;6.00;99.90;;;;;;4964591;28;20556;-49
2022/03/29 00:33:58;;;;;;;15.97;12.33;;;6.00;99.90;;;;;;4969364;28;20484;-49
2022/03/29 00:36:26;;;;;;;21.47;12.80;;;6.00;99.90;;;;;;4970481;28;20468;-49
2022/03/29 00:38:54;;;;;;;14.40;12.83;;;6.00;99.90;;;;;;4969724;28;20476;-49
2022/03/29 00:41:22;;;;;;;15.70;13.43;;;6.10;99.90;;;;;;4968596;28;20579;-49
2022/03/29 00:43:49;;;;;;;15.37;12.43;;;6.10;99.90;;;;;;4972345;28;20594;-50
2022/03/29 00:46:16;;;;;;;15.87;12.70;;;6.10;99.90;;;;;;4971754;28;21043;-49
2022/03/29 00:48:42;;;;;;;14.33;12.63;;;6.10;99.90;;;;;;4968560;28;20553;-49
2022/03/29 00:51:10;;;;;;;15.40;13.00;;;6.20;99.90;;;;;;4969669;28;20573;-49
2022/03/29 00:53:36;;;;;;;15.20;13.70;;;6.20;99.90;;;;;;4967296;28;20477;-49
2022/03/29 00:56:03;;;;;;;13.20;11.80;;;6.20;99.90;;;;;;4971572;28;20471;-49
2022/03/29 00:58:34;;;;;;;14.13;12.33;;;6.20;99.90;;;;;;4968930;28;20575;-49
2022/03/29 01:01:01;;;;;;;19.13;12.80;;;6.20;99.90;;;;;;4968782;28;20469;-48
2022/03/29 01:03:28;;;;;;;15.07;13.10;;;6.20;99.90;;;;;;4970916;28;20484;-49
2022/03/29 01:05:54;;;;;;;15.70;12.03;;;6.20;99.90;;;;;;4974344;28;20499;-50
2022/03/29 01:08:21;;;;;;;14.90;12.10;;;6.20;99.90;;;;;;4968614;28;21081;-49
2022/03/29 01:10:48;;;;;;;16.73;14.17;;;6.20;99.90;;;;;;4966233;28;20619;-49
2022/03/29 01:13:16;;;;;;;13.63;12.33;;;6.10;99.90;;;;;;4969155;28;20484;-50
2022/03/29 01:15:45;;;;;;;15.27;12.77;;;6.10;99.90;;;;;;4967478;28;20464;-49
2022/03/29 01:18:12;;;;;;;18.77;13.97;;;6.20;99.90;;;;;;4968766;28;20955;-49
2022/03/29 01:20:43;;;;;;;16.87;12.53;;;6.20;99.90;;;;;;4969034;28;20497;-49
2022/03/29 01:23:12;;;;;;;15.07;13.00;;;6.10;99.90;;;;;;4974105;28;20571;-49
2022/03/29 01:25:40;;;;;;;19.43;12.80;;;6.20;99.90;;;;;;4976395;28;20517;-49
2022/03/29 01:28:07;;;;;;;15.97;12.80;;;6.20;99.90;;;;;;4985158;28;20516;-49
2022/03/29 01:30:35;;;;;;;14.63;13.00;;;6.30;99.90;;;;;;4974396;28;22017;-49
2022/03/29 01:33:06;;;;;;;19.10;13.77;;;6.20;99.90;;;;;;4967862;28;20584;-49
2022/03/29 01:35:33;;;;;;;15.83;12.73;;;6.30;99.90;;;;;;4968093;28;20568;-49
2022/03/29 01:38:00;;;;;;;16.63;12.97;;;6.30;99.90;;;;;;4970612;28;20484;-49
2022/03/29 01:40:28;;;;;;;15.33;13.37;;;6.20;99.90;;;;;;4969120;28;20613;-49
2022/03/29 01:42:56;;;;;;;16.13;13.10;;;6.20;99.90;;;;;;4968545;28;20485;-49
2022/03/29 01:45:25;;;;;;;16.83;13.10;;;6.20;99.90;;;;;;4968965;28;20563;-49
2022/03/29 01:47:52;;;;;;;12.80;11.50;;;6.20;99.90;;;;;;4968082;28;20519;-49
2022/03/29 01:50:18;;;;;;;14.47;12.80;;;6.30;99.90;;;;;;4965246;28;21093;-49
2022/03/29 01:52:47;;;;;;;19.23;13.30;;;6.30;99.90;;;;;;4968001;28;20506;-49
2022/03/29 01:55:16;;;;;;;16.67;12.83;;;6.30;99.90;;;;;;4967657;28;20580;-49
2022/03/29 01:57:44;;;;;;;18.67;13.40;;;6.30;99.90;;;;;;4966460;28;20537;-49
2022/03/29 02:02:57;;;;;;;17.27;13.00;;;6.30;99.90;;;;;;4964772;28;20504;-49
2022/03/29 02:05:24;;;;;;;16.40;13.60;;;6.30;99.90;;;;;;4968063;28;20584;-49
2022/03/29 02:07:51;;;;;;;16.43;14.00;;;6.40;99.90;;;;;;4967584;28;20544;-49
2022/03/29 02:10:18;;;;;;;15.80;12.70;;;6.30;99.90;;;;;;4965872;28;20548;-49
2022/03/29 02:12:49;;;;;;;17.27;14.50;;;6.20;99.90;;;;;;4966083;28;20587;-50
2022/03/29 02:15:16;;;;;;;15.80;13.33;;;6.30;99.90;;;;;;4967040;28;20572;-50
2022/03/29 02:17:44;;;;;;;18.30;14.40;;;6.30;99.90;;;;;;4967417;28;20580;-50
2022/03/29 02:20:13;;;;;;;19.20;14.43;;;6.30;99.90;;;;;;4965471;28;21098;-50
2022/03/29 02:22:40;;;;;;;15.20;13.37;;;6.20;99.90;;;;;;4965993;28;20564;-49
2022/03/29 02:25:10;;;;;;;17.23;13.60;;;6.30;99.90;;;;;;4967218;28;20548;-49
2022/03/29 02:27:37;;;;;;;16.63;14.60;;;6.30;99.90;;;;;;4963859;28;20973;-50
2022/03/29 02:30:06;;;;;;;15.83;14.23;;;6.30;99.90;;;;;;4965411;28;21306;-49
2022/03/29 02:32:33;;;;;;;16.77;13.90;;;6.30;99.90;;;;;;4967008;28;20608;-49
2022/03/29 02:34:59;;;;;;;18.67;15.20;;;6.30;99.90;;;;;;4968129;28;20524;-49
2022/03/29 02:37:26;;;;;;;16.07;14.37;;;6.30;99.90;;;;;;4967597;28;20552;-50
2022/03/29 02:39:52;;;;;;;17.57;14.30;;;6.30;99.90;;;;;;4963793;28;20482;-49
2022/03/29 02:42:19;;;;;;;17.70;13.80;;;6.30;99.90;;;;;;4965252;28;20569;-50
2022/03/29 02:44:46;;;;;;;15.87;13.77;;;6.30;99.90;;;;;;4967508;28;20576;-49
2022/03/29 02:47:13;;;;;;;19.80;14.33;;;6.30;99.90;;;;;;4967184;28;21026;-49
2022/03/29 02:49:40;;;;;;;16.80;13.13;;;6.30;99.90;;;;;;4967467;28;20540;-51
2022/03/29 02:52:07;;;;;;;20.37;15.10;;;6.40;99.90;;;;;;4966559;28;22159;-49
2022/03/29 02:54:35;;;;;;;15.93;14.30;;;6.30;99.90;;;;;;4966482;28;20613;-49
2022/03/29 02:57:01;;;;;;;19.57;14.30;;;6.30;99.90;;;;;;4971482;28;20861;-48
2022/03/29 02:59:28;;;;;;;15.67;12.50;;;6.20;99.90;;;;;;4967175;28;20473;-49
2022/03/29 03:01:56;;;;;;;18.07;13.67;;;6.20;99.90;;;;;;4970384;28;21066;-49
2022/03/29 03:04:24;;;;;;;18.87;15.70;;;6.30;99.90;;;;;;4968312;28;20548;-49
2022/03/29 03:06:51;;;;;;;23.40;17.10;;;6.20;99.90;;;;;;4966145;28;20581;-49
2022/03/29 03:09:18;;;;;;;25.70;17.00;;;6.10;99.90;;;;;;4966800;28;20555;-49
2022/03/29 03:11:44;;;;;;;25.03;18.80;;;6.10;99.90;;;;;;4968939;28;20471;-49
2022/03/29 03:14:11;;;;;;;22.40;17.43;;;6.10;99.90;;;;;;4964348;28;20570;-50
2022/03/29 03:16:38;;;;;;;20.53;15.83;;;6.10;99.90;;;;;;4964692;28;20458;-50
2022/03/29 03:19:04;;;;;;;23.83;15.40;;;6.10;99.90;;;;;;4958378;28;20531;-49
2022/03/29 03:21:32;;;;;;;21.40;16.73;;;6.10;99.90;;;;;;4963976;28;20536;-49
2022/03/29 03:23:59;;;;;;;22.10;16.43;;;6.10;99.90;;;;;;4967744;28;20572;-50
2022/03/29 03:26:25;;;;;;;25.93;16.47;;;6.10;99.90;;;;;;4965952;28;20564;-49
2022/03/29 03:28:52;;;;;;;17.80;15.30;;;6.10;99.90;;;;;;4971061;28;20891;-49
2022/03/29 03:31:18;;;;;;;25.97;17.30;;;6.10;99.90;;;;;;4964371;28;20552;-48
2022/03/29 03:33:45;;;;;;;21.37;16.10;;;6.10;99.90;;;;;;4973576;28;20501;-49
2022/03/29 03:36:11;;;;;;;22.87;16.23;;;6.10;99.90;;;;;;4977777;28;20491;-49
2022/03/29 03:38:39;;;;;;;20.63;15.77;;;6.10;99.90;;;;;;4970332;28;20461;-52
2022/03/29 03:41:06;;;;;;;21.60;16.90;;;6.10;99.90;;;;;;4967195;28;20588;-51
2022/03/29 03:43:32;;;;;;;23.93;17.70;;;6.10;99.90;;;;;;4966800;28;20572;-52
2022/03/29 03:45:59;;;;;;;23.17;16.70;;;6.20;99.90;;;;;;4967604;28;20505;-51
2022/03/29 03:48:25;;;;;;;24.67;16.40;;;6.10;99.90;;;;;;4963261;28;20540;-52
2022/03/29 03:50:52;;;;;;;26.47;18.30;;;6.10;99.90;;;;;;4966201;28;20576;-52
2022/03/29 03:53:18;;;;;;;26.63;17.47;;;6.20;99.90;;;;;;4967439;28;20587;-52
2022/03/29 03:55:46;;;;;;;23.20;17.73;;;6.10;99.90;;;;;;4968299;28;20548;-51
2022/03/29 03:58:13;;;;;;;25.43;17.83;;;6.20;99.90;;;;;;4966299;28;20556;-52
2022/03/29 04:00:40;;;;;;;24.40;16.23;;;6.10;99.90;;;;;;4965578;28;20480;-52
2022/03/29 04:03:09;;;;;;;29.23;18.47;;;6.10;99.90;;;;;;4965170;28;20564;-52
2022/03/29 04:05:35;;;;;;;22.57;16.70;;;6.10;99.90;;;;;;4966774;28;20874;-52
2022/03/29 04:08:02;;;;;;;22.83;18.50;;;6.20;99.90;;;;;;4967144;28;20557;-52
2022/03/29 04:10:28;;;;;;;24.50;16.80;;;6.10;99.90;;;;;;4965330;28;20498;-51
2022/03/29 04:12:56;;;;;;;25.03;18.30;;;6.10;99.90;;;;;;4968484;28;21019;-52
2022/03/29 04:15:23;;;;;;;25.47;17.30;;;6.10;99.90;;;;;;4971785;28;20660;-52
2022/03/29 04:17:50;;;;;;;25.17;18.73;;;6.10;99.90;;;;;;4972651;28;20476;-52
2022/03/29 04:20:16;;;;;;;26.40;17.57;;;6.10;99.90;;;;;;4970683;28;21081;-52
2022/03/29 04:22:43;;;;;;;20.47;17.40;;;6.10;99.90;;;;;;4966717;28;20594;-53
2022/03/29 04:25:11;;;;;;;23.70;17.23;;;6.10;99.90;;;;;;4971688;28;20852;-51
2022/03/29 04:27:38;;;;;;;25.80;17.20;;;6.10;99.90;;;;;;4967307;28;20544;-51
2022/03/29 04:30:07;;;;;;;20.13;17.63;;;6.20;99.90;;;;;;4967459;28;20557;-49
2022/03/29 04:32:37;;;;;;;23.17;18.30;;;6.20;99.90;;;;;;4968104;28;20519;-49
2022/03/29 04:35:04;;;;;;;25.23;17.30;;;6.20;99.90;;;;;;4972570;28;20988;-49
2022/03/29 04:37:30;;;;;;;24.30;19.40;;;6.20;99.90;;;;;;4968161;28;20557;-49
2022/03/29 04:39:57;;;;;;;25.93;17.57;;;6.20;99.90;;;;;;4966145;28;20487;-49
2022/03/29 04:42:24;;;;;;;26.30;17.97;;;6.20;99.90;;;;;;4968082;28;20484;-48
2022/03/29 04:44:50;;;;;;;24.87;18.60;;;6.20;99.90;;;;;;4972528;28;20552;-49
2022/03/29 04:47:18;;;;;;;23.70;17.47;;;6.20;99.90;;;;;;4970691;28;20576;-49
2022/03/29 04:49:45;;;;;;;20.87;16.77;;;6.20;99.90;;;;;;4972119;28;20457;-52
2022/03/29 04:52:12;;;;;;;24.07;18.73;;;6.20;1.40;;;;;;4971503;28;20951;-52
2022/03/29 04:54:38;;;;;;;23.90;17.70;;;6.20;99.90;;;;;;4975463;28;20576;-51
2022/03/29 04:57:05;;;;;;;23.27;17.23;;;6.20;99.90;;;;;;4965802;28;20556;-51
2022/03/29 04:59:32;;;;;;;23.53;17.80;;;6.10;99.90;;;;;;4965026;28;20493;-52
2022/03/29 05:01:58;;;;;;;27.20;19.23;;;6.20;99.90;;;;;;4967289;28;20540;-50
2022/03/29 05:04:26;;;;;;;28.83;17.60;;;6.10;99.90;;;;;;4970375;28;20517;-50
2022/03/29 05:06:53;;;;;;;25.70;17.87;;;6.00;99.90;;;;;;4978066;28;20798;-52
2022/03/29 05:09:19;;;;;;;34.43;19.40;;;6.10;99.90;;;;;;4971475;28;20524;-52
2022/03/29 05:11:46;;;;;;;25.53;17.80;;;6.10;99.90;;;;;;4968292;28;20493;-51
2022/03/29 05:14:12;;;;;;;23.97;17.30;;;6.10;99.90;;;;;;4970386;28;20584;-52
2022/03/29 05:16:39;;;;;;;25.27;19.03;;;6.10;99.90;;;;;;4975072;28;20548;-52
2022/03/29 05:19:05;;;;;;;23.77;18.50;;;6.10;99.90;;;;;;4972838;28;22216;-52
2022/03/29 05:21:33;;;;;;;28.23;19.00;;;6.10;99.90;;;;;;4966733;28;20604;-51
2022/03/29 05:24:00;;;;;;;29.47;17.90;;;6.10;99.90;;;;;;4963536;28;20536;-52
2022/03/29 05:26:27;;;;;;;31.53;20.50;;;6.20;99.90;;;;;;4963826;28;20589;-52
2022/03/29 05:28:53;;;;;;;26.00;18.30;;;6.20;99.90;;;;;;4974905;28;20473;-52
2022/03/29 05:31:20;;;;;;;25.40;18.30;;;6.20;99.90;;;;;;4973008;28;20468;-51
2022/03/29 05:33:46;;;;;;;23.90;18.37;;;6.20;99.90;;;;;;4969998;28;20584;-51
2022/03/29 05:36:13;;;;;;;27.03;18.87;;;6.30;99.90;;;;;;4970989;28;20544;-51
2022/03/29 05:38:47;;;;;;;32.30;20.03;;;6.20;99.90;;;;;;4981521;28;20461;-51
2022/03/29 05:41:15;;;;;;;27.77;19.77;;;6.20;99.90;;;;;;4970893;28;20489;-51
2022/03/29 05:43:42;;;;;;;28.90;19.33;;;6.20;99.90;;;;;;4978322;28;20478;-53
2022/03/29 05:48:53;;;;;;;27.97;19.27;;;6.30;99.90;;;;;;4977353;28;20788;-49
2022/03/29 05:51:20;;;;;;;33.77;20.53;;;6.20;99.90;;;;;;4982959;28;20459;-50
2022/03/29 05:53:48;;;;;;;35.93;21.17;;;6.30;99.90;;;;;;4977932;28;20513;-51
2022/03/29 05:56:15;;;;;;;32.27;20.07;;;6.30;99.90;;;;;;4982576;28;20515;-50
2022/03/29 05:58:42;;;;;;;34.37;21.77;;;6.40;99.90;;;;;;4982599;28;20464;-49
2022/03/29 06:01:08;;;;;;;28.50;20.23;;;6.40;99.90;;;;;;4973378;28;20621;-50
2022/03/29 06:03:35;;;;;;;29.80;22.53;;;6.40;99.90;;;;;;4967461;28;20907;-50
2022/03/29 06:06:01;;;;;;;33.63;21.67;;;6.50;99.90;;;;;;4962928;28;20561;-50
2022/03/29 06:08:29;;;;;;;35.00;21.70;;;6.50;99.90;;;;;;4966992;28;20556;-50
2022/03/29 06:10:58;;;;;;;30.70;20.77;;;6.60;99.90;;;;;;4975474;28;21124;-49
2022/03/29 06:13:25;;;;;;;34.63;22.13;;;6.60;99.90;;;;;;4968157;28;20485;-51
2022/03/29 06:15:51;;;;;;;34.03;20.50;;;6.60;99.90;;;;;;4965803;28;20466;-51
2022/03/29 06:18:18;;;;;;;30.93;21.33;;;6.60;99.90;;;;;;4968703;28;20649;-50
2022/03/29 06:20:44;;;;;;;28.87;21.60;;;6.60;99.90;;;;;;4973832;28;21258;-49
2022/03/29 06:23:11;;;;;;;36.60;22.07;;;6.70;99.90;;;;;;4970524;28;21232;-54
2022/03/29 06:25:37;;;;;;;32.23;21.10;;;6.80;99.90;;;;;;4968575;28;20552;-53
2022/03/29 06:28:05;;;;;;;31.90;22.00;;;6.80;99.90;;;;;;4970986;28;20568;-51
2022/03/29 06:30:32;;;;;;;32.47;21.30;;;6.90;99.90;;;;;;4972151;28;20904;-52
2022/03/29 06:32:59;;;;;;;31.13;20.67;;;6.90;99.90;;;;;;4973081;28;20874;-51
2022/03/29 06:35:28;;;;;;;30.43;20.03;;;7.00;99.90;;;;;;4968667;28;20462;-51
2022/03/29 06:37:56;;;;;;;28.57;19.93;;;7.00;99.90;;;;;;4970387;28;20554;-51
2022/03/29 06:40:24;;;;;;;32.30;19.80;;;7.10;99.90;;;;;;4969355;28;20565;-53
2022/03/29 06:42:52;;;;;;;37.60;21.60;;;7.10;99.90;;;;;;4977458;28;20525;-53
2022/03/29 06:45:20;;;;;;;31.07;21.23;;;7.10;99.90;;;;;;4972299;28;21026;-51
2022/03/29 06:47:47;;;;;;;30.00;21.27;;;7.10;99.90;;;;;;4968896;28;21529;-51
2022/03/29 06:50:14;;;;;;;31.67;20.30;;;7.10;99.90;;;;;;4970408;28;20468;-51
2022/03/29 06:52:42;;;;;;;33.33;20.17;;;7.30;99.90;;;;;;4976426;28;20548;-51
2022/03/29 06:55:10;;;;;;;29.10;19.83;;;7.60;99.90;;;;;;4972145;28;20585;-51
2022/03/29 06:57:37;;;;;;;32.43;22.20;;;7.70;99.90;;;;;;4972524;28;21022;-50
2022/03/29 07:00:05;;;;;;;33.23;20.80;;;7.70;99.90;;;;;;4979623;28;20543;-49
2022/03/29 07:02:34;;;;;;;31.30;20.90;;;7.50;81.80;;;;;;4970554;28;21206;-49
2022/03/29 07:05:00;;;;;;;31.33;18.20;;;7.50;22.00;;;;;;4972235;28;20955;-49
2022/03/29 07:07:27;;;;;;;27.83;19.97;;;7.30;22.40;;;;;;4974449;28;20557;-50
2022/03/29 07:12:47;;;;;;;28.93;19.47;;;7.20;28.10;;;;;;4965343;28;20448;-50
2022/03/29 07:15:14;;;;;;;29.20;18.10;;;7.40;22.40;;;;;;4963500;28;20468;-50
2022/03/29 07:17:42;;;;;;;29.50;18.97;;;7.30;28.50;;;;;;4961748;28;21058;-49
2022/03/29 07:20:10;;;;;;;24.23;17.50;;;7.40;25.80;;;;;;4959562;28;20600;-49
2022/03/29 07:22:36;;;;;;;29.43;18.47;;;7.40;36.00;;;;;;4968082;28;20556;-50
2022/03/29 07:25:03;;;;;;;26.33;17.93;;;7.40;41.50;;;;;;4964832;28;20461;-49
2022/03/29 07:27:30;;;;;;;32.50;17.80;;;7.60;40.70;;;;;;4965233;28;20592;-50
2022/03/29 07:29:57;;;;;;;30.37;17.50;;;7.50;48.40;;;;;;4964471;28;20472;-50
2022/03/29 07:32:24;;;;;;;26.50;16.63;;;7.50;60.30;;;;;;4967265;28;20663;-49
2022/03/29 07:34:54;;;;;;;27.83;15.50;;;7.40;60.00;;;;;;4967062;28;20493;-50
2022/03/29 07:37:21;;;;;;;31.30;15.10;;;7.40;70.30;;;;;;4968557;28;20544;-49
2022/03/29 07:39:48;;;;;;;25.43;15.13;;;7.20;76.20;;;;;;4966826;28;20996;-50
2022/03/29 07:42:15;;;;;;;25.33;15.17;;;7.20;75.40;;;;;;4957587;28;20880;-50
2022/03/29 07:44:41;;;;;;;21.03;15.60;;;7.20;73.90;;;;;;4971613;28;20524;-50
2022/03/29 07:47:08;;;;;;;25.00;15.70;;;7.20;72.50;;;;;;4968552;23;20529;-53
2022/03/29 07:49:34;;;;;;;27.30;14.43;;;7.50;75.00;;;;;;4940299;28;20465;-52
2022/03/29 07:52:02;;;;;;;25.17;15.23;;;7.70;82.20;;;;;;4949225;28;20552;-52
2022/03/29 07:54:29;;;;;;;22.57;14.40;;;7.80;85.80;;;;;;4946656;28;20549;-52
2022/03/29 07:56:56;;;;;;;27.50;13.73;;;8.10;91.10;;;;;;4949461;28;20588;-52
2022/03/29 07:59:23;;;;;;;23.93;14.20;;;8.40;97.10;;;;;;4950160;28;20458;-52
2022/03/29 08:01:50;;;;;;;30.70;14.50;;;8.50;99.90;;;;;;4944763;28;20581;-52
2022/03/29 08:04:17;;;;;;;23.20;15.00;;;8.20;97.60;;;;;;4938627;28;20502;-52
2022/03/29 08:06:43;;;;;;;20.87;14.07;;;8.20;99.50;;;;;;4951667;29;20561;-53
2022/03/29 08:09:11;;;;;;;18.00;11.70;;;8.20;99.90;;;;;;4949152;28;21024;-52
2022/03/29 08:11:40;;;;;;;19.33;12.93;;;8.10;99.90;;;;;;4948284;29;20559;-54
2022/03/29 08:14:07;;;;;;;22.97;12.97;;;8.30;99.90;;;;;;4943502;29;21024;-53
2022/03/29 08:16:34;;;;;;;21.00;13.23;;;8.50;99.90;;;;;;4949082;28;21047;-52
2022/03/29 08:19:00;;;;;;;18.27;12.70;;;8.80;99.90;;;;;;4944002;29;20987;-52
2022/03/29 08:24:12;;;;;;;23.47;12.03;;;8.50;99.90;;;;;;4945380;28;20605;-52
2022/03/29 08:26:39;;;;;;;23.97;13.13;;;9.00;99.90;;;;;;4947056;28;20949;-52
2022/03/29 08:29:05;;;;;;;21.10;13.53;;;8.90;99.90;;;;;;4948208;29;20561;-52
2022/03/29 08:31:32;;;;;;;23.13;11.53;;;8.70;99.90;;;;;;4951722;29;20541;-52
2022/03/29 08:33:59;;;;;;;30.40;13.30;;;9.10;99.90;;;;;;4945982;29;20459;-52
2022/03/29 08:36:25;;;;;;;23.70;13.30;;;9.50;99.90;;;;;;4946879;29;20561;-52
2022/03/29 08:38:52;;;;;;;19.77;11.20;;;9.60;99.90;;;;;;4953548;28;20549;-51
2022/03/29 08:41:22;;;;;;;22.13;12.33;;;9.80;99.90;;;;;;4945460;28;20518;-53
2022/03/29 08:43:49;;;;;;;22.83;12.87;;;9.50;99.90;;;;;;4949885;29;20553;-52
2022/03/29 08:46:15;;;;;;;20.40;12.13;;;9.20;99.90;;;;;;4950578;28;20996;-52
2022/03/29 08:48:44;;;;;;;20.80;11.93;;;8.60;99.90;;;;;;4948330;28;20628;-52
2022/03/29 08:51:12;;;;;;;23.73;12.93;;;9.50;99.90;;;;;;4951307;29;20536;-52
2022/03/29 08:53:38;;;;;;;18.03;11.30;;;9.90;99.90;;;;;;4944760;28;20508;-52
2022/03/29 08:56:05;;;;;;;16.50;10.50;;;10.00;99.90;;;;;;4949819;28;20569;-52
2022/03/29 08:58:33;;;;;;;15.90;11.23;;;9.90;99.90;;;;;;4949709;28;20552;-52
2022/03/29 09:01:00;;;;;;;18.13;12.03;;;9.50;99.90;;;;;;4953551;28;20845;-52
2022/03/29 09:03:26;;;;;;;19.63;11.37;;;10.10;99.90;;;;;;4958870;28;20470;-53
2022/03/29 09:06:06;;;;;;;14.90;9.70;;;10.40;99.90;;;;;;4951957;28;21212;-53
2022/03/29 09:08:42;;;;;;;16.33;11.70;;;11.30;99.90;;;;;;4951961;29;20470;-52
2022/03/29 09:11:09;;;;;;;16.67;11.33;;;11.10;99.90;;;;;;4950956;29;20477;-52
2022/03/29 09:13:37;;;;;;;15.97;11.10;;;11.00;99.90;;;;;;4955183;29;20545;-52
2022/03/29 09:16:05;;;;;;;16.83;11.77;;;11.70;99.90;;;;;;4950283;28;20565;-51
2022/03/29 09:18:32;;;;;;;22.30;11.60;;;11.30;99.90;;;;;;4955244;28;20454;-52
2022/03/29 09:21:11;;;;;;;15.50;10.40;;;12.00;99.90;;;;;;4953725;28;20462;-52
2022/03/29 09:23:38;;;;;;;16.77;11.40;;;12.00;99.90;;;;;;4951774;29;20462;-52
2022/03/29 09:26:05;;;;;;;21.20;11.90;;;12.00;99.90;;;;;;4944266;28;20572;-52
2022/03/29 09:28:37;;;;;;;29.07;10.80;;;13.00;99.90;;;;;;4945380;28;21120;-52
2022/03/29 09:31:18;;;;;;;19.33;12.27;;;14.30;99.90;;;;;;4949226;29;20605;-52
2022/03/29 09:33:44;;;;;;;20.07;12.10;;;14.30;99.90;;;;;;4944842;28;20664;-52
2022/03/29 09:36:14;;;;;;;19.20;12.63;;;13.40;99.90;;;;;;4946558;28;20549;-53
2022/03/29 09:38:44;;;;;;;15.67;12.40;;;12.80;99.90;;;;;;4944180;28;21964;-51
2022/03/29 09:41:21;;;;;;;21.30;13.60;;;11.60;99.90;;;;;;4946253;29;20469;-52
2022/03/29 09:44:00;;;;;;;22.37;11.60;;;12.60;99.90;;;;;;4945814;29;21208;-51
2022/03/29 09:46:27;;;;;;;24.40;12.10;;;12.10;99.90;;;;;;4944054;28;20493;-52
2022/03/29 09:48:59;;;;;;;19.47;11.93;;;13.00;99.90;;;;;;4943530;29;20553;-52
2022/03/29 09:51:27;;;;;;;16.30;10.97;;;12.20;99.90;;;;;;4946652;29;20490;-52
2022/03/29 09:53:56;;;;;;;18.40;11.40;;;12.50;99.90;;;;;;4946445;28;20469;-52
2022/03/29 09:56:26;;;;;;;25.80;10.60;;;13.10;99.90;;;;;;4945454;28;20980;-53
2022/03/29 09:59:08;;;;;;;18.30;11.93;;;14.50;99.90;;;;;;4944377;28;20829;-52
2022/03/29 10:01:48;;;;;;;14.23;10.80;;;14.30;99.90;;;;;;4946037;28;20486;-52
2022/03/29 10:04:16;;;;;;;12.83;8.30;;;14.60;99.90;;;;;;4947814;28;20462;-52
2022/03/29 10:06:43;;;;;;;11.87;9.20;;;14.30;99.90;;;;;;4950223;28;20487;-51
2022/03/29 10:09:29;;;;;;;13.40;9.87;;;14.50;99.90;;;;;;4951747;28;20489;-53
2022/03/29 10:11:58;;;;;;;12.97;8.40;;;14.00;99.90;;;;;;4955760;28;20490;-52
2022/03/29 10:14:27;;;;;;;14.40;9.20;;;14.90;99.90;;;;;;4951773;29;20473;-52
2022/03/29 10:16:54;;;;;;;16.67;9.47;;;14.20;99.90;;;;;;4954560;28;20508;-52
2022/03/29 10:19:22;;;;;;;12.10;8.67;;;14.20;99.90;;;;;;4950674;28;20541;-53
2022/03/29 10:21:50;;;;;;;13.63;7.87;;;14.50;99.90;;;;;;4944879;28;20569;-52
2022/03/29 10:24:18;;;;;;;22.23;9.13;;;14.80;99.90;;;;;;4946464;28;20466;-52
2022/03/29 10:26:48;;;;;;;12.67;7.30;;;14.90;99.90;;;;;;4948574;28;20497;-53
2022/03/29 10:29:16;;;;;;;8.53;7.60;;;15.00;99.90;;;;;;4943607;28;20925;-53
2022/03/29 10:31:52;;;;;;;14.73;7.60;;;15.00;99.90;;;;;;4952959;28;20565;-53
2022/03/29 10:34:21;;;;;;;19.90;7.20;;;14.20;99.90;;;;;;4953058;29;20520;-53
2022/03/29 10:37:12;;;;;;;10.40;6.27;;;14.30;99.90;;;;;;4951692;28;21210;-52
2022/03/29 10:39:47;;;;;;;10.60;5.50;;;14.00;99.90;;;;;;4947060;28;20455;-53
2022/03/29 10:42:31;;;;;;;12.23;5.03;;;13.60;99.90;;;;;;4950121;28;20508;-53
2022/03/29 10:45:00;;;;;;;12.23;5.00;;;13.00;99.90;;;;;;4944315;28;20554;-52
2022/03/29 10:47:28;;;;;;;9.33;5.40;;;12.80;99.90;;;;;;4939901;28;20505;-52
2022/03/29 10:49:55;;;;;;;17.17;5.27;;;13.00;99.90;;;;;;4948320;28;21031;-52
2022/03/29 10:52:30;;;;;;;8.53;5.43;;;13.20;99.90;;;;;;4944899;28;20831;-51
2022/03/29 10:55:21;;;;;;;7.73;4.67;;;13.10;99.90;;;;;;4946345;28;20932;-54
2022/03/29 10:58:09;;;;;;;12.43;5.17;;;12.80;99.90;;;;;;4950137;28;20485;-53
2022/03/29 11:00:37;;;;;;;11.57;6.17;;;13.80;99.90;;;;;;4949327;29;20494;-52
2022/03/29 11:03:20;;;;;;;11.43;4.93;;;13.50;99.90;;;;;;4947956;28;20557;-52
2022/03/29 11:06:07;;;;;;;8.33;4.10;;;13.20;99.90;;;;;;4945326;28;21207;-52
2022/03/29 11:08:34;;;;;;;14.27;5.80;;;13.10;99.90;;;;;;4946019;28;20824;-52
2022/03/29 11:11:01;;;;;;;10.40;5.53;;;13.60;99.90;;;;;;4949817;28;20498;-52
2022/03/29 11:13:29;;;;;;;14.83;5.97;;;14.10;99.90;;;;;;4945896;28;20913;-51
2022/03/29 11:16:00;;;;;;;9.23;4.40;;;15.00;99.90;;;;;;4945346;28;20578;-52
2022/03/29 11:18:49;;;;;;;14.63;4.30;;;13.80;99.90;;;;;;4945298;28;20470;-52
2022/03/29 11:21:34;;;;;;;9.50;4.07;;;13.20;99.90;;;;;;4943509;28;20826;-53
2022/03/29 11:24:03;;;;;;;9.40;4.17;;;13.60;99.90;;;;;;4945319;28;22613;-53
2022/03/29 11:26:30;;;;;;;16.83;4.20;;;13.90;99.90;;;;;;4944153;28;21103;-53
2022/03/29 11:28:58;;;;;;;9.33;4.00;;;13.90;99.90;;;;;;4943180;28;20570;-52
2022/03/29 11:31:33;;;;;;;9.60;3.60;;;13.30;99.90;;;;;;4943404;28;22448;-52
2022/03/29 11:34:02;;;;;;;11.70;5.13;;;13.20;99.90;;;;;;4945627;28;20537;-52
2022/03/29 11:36:29;;;;;;;7.50;3.50;;;13.10;99.90;;;;;;4943790;28;20585;-51
2022/03/29 11:38:56;;;;;;;8.57;4.10;;;12.80;99.90;;;;;;4946277;28;20542;-52
2022/03/29 11:41:25;;;;;;;5.80;2.93;;;12.90;99.90;;;;;;4946175;28;20467;-52
2022/03/29 11:43:56;;;;;;;8.63;3.03;;;12.90;99.90;;;;;;4950153;29;20494;-52
2022/03/29 11:46:24;;;;;;;13.73;3.07;;;12.80;99.90;;;;;;4950209;28;20577;-53
2022/03/29 11:48:52;;;;;;;9.30;2.53;;;12.90;99.90;;;;;;4949010;28;20944;-52
2022/03/29 11:51:21;;;;;;;7.87;3.00;;;12.70;99.90;;;;;;4950935;28;20991;-52
2022/03/29 11:53:57;;;;;;;11.83;3.63;;;12.70;99.90;;;;;;4947832;28;20549;-52
2022/03/29 11:56:24;;;;;;;14.40;3.80;;;12.50;99.90;;;;;;4944541;29;20570;-52
2022/03/29 11:58:52;;;;;;;10.67;3.03;;;12.60;99.90;;;;;;4946110;28;20589;-52
2022/03/29 12:01:22;;;;;;;10.13;2.70;;;12.60;99.90;;;;;;4944399;28;20498;-52
2022/03/29 12:03:55;;;;;;;10.07;2.53;;;12.80;99.90;;;;;;4943099;28;20497;-52
2022/03/29 12:06:25;;;;;;;4.70;2.50;;;13.00;99.90;;;;;;4948286;28;20573;-51
2022/03/29 12:08:55;;;;;;;7.90;2.70;;;12.90;99.90;;;;;;4942184;28;20466;-52
2022/03/29 12:11:24;;;;;;;4.40;2.13;;;12.60;99.90;;;;;;4945909;29;20550;-52
2022/03/29 12:14:01;;;;;;;8.00;2.20;;;12.70;99.90;;;;;;4942647;28;20553;-53
2022/03/29 12:16:28;;;;;;;18.60;2.73;;;12.60;99.90;;;;;;4939621;28;20564;-53
2022/03/29 12:18:55;;;;;;;7.60;2.67;;;13.10;99.90;;;;;;4940178;28;20459;-52
2022/03/29 12:21:25;;;;;;;3.57;2.00;;;13.40;99.90;;;;;;4948346;28;20498;-52
2022/03/29 12:24:00;;;;;;;10.37;2.20;;;13.00;99.90;;;;;;4945547;28;20573;-52
2022/03/29 12:26:27;;;;;;;7.13;2.30;;;13.00;99.90;;;;;;4943420;29;20941;-53
2022/03/29 12:28:54;;;;;;;5.37;2.10;;;13.50;99.90;;;;;;4947284;29;20462;-52
2022/03/29 12:31:23;;;;;;;10.70;2.13;;;13.80;99.90;;;;;;4945760;28;20463;-53
2022/03/29 12:33:52;;;;;;;7.33;2.57;;;14.20;99.90;;;;;;4950348;28;20462;-52
2022/03/29 12:36:19;;;;;;;7.23;2.20;;;13.80;99.90;;;;;;4950759;28;20487;-52
2022/03/29 12:38:49;;;;;;;7.63;1.93;;;14.10;99.90;;;;;;4951715;28;20549;-53
2022/03/29 12:41:30;;;;;;;6.33;2.03;;;14.70;99.90;;;;;;4950426;28;20577;-52
2022/03/29 12:43:57;;;;;;;9.40;2.87;;;14.80;99.90;;;;;;4951583;28;20595;-53
2022/03/29 12:46:24;;;;;;;7.33;2.50;;;15.20;99.90;;;;;;4947310;28;20493;-52
2022/03/29 12:48:51;;;;;;;8.77;2.53;;;15.00;99.90;;;;;;4948238;29;20468;-52
2022/03/29 12:51:18;;;;;;;3.73;1.90;;;15.50;99.90;;;;;;4950680;28;20561;-52
2022/03/29 12:53:57;;;;;;;4.47;2.30;;;14.90;99.90;;;;;;4950383;28;20478;-51
2022/03/29 12:56:31;;;;;;;6.30;2.77;;;14.60;99.90;;;;;;4953340;28;20490;-51